createdAt,value
2023-03-06T00:02:17.141Z,5.52
2023-03-06T00:04:53.459Z,5.54
2023-03-06T00:07:27.616Z,5.60
2023-03-06T00:10:02.285Z,5.62
2023-03-06T00:12:36.346Z,5.64
2023-03-06T00:15:12.303Z,5.61
2023-03-06T00:17:46.570Z,5.63
2023-03-06T00:20:23.964Z,5.51
2023-03-06T00:22:58.197Z,5.51
2023-03-06T00:25:34.966Z,5.45
2023-03-06T00:28:09.181Z,5.43
2023-03-06T00:30:44.573Z,5.42
2023-03-06T00:33:18.910Z,5.35
2023-03-06T00:35:55.045Z,5.41
2023-03-06T00:38:33.490Z,5.52
2023-03-06T00:41:09.452Z,5.40
2023-03-06T00:43:44.036Z,5.44
2023-03-06T00:46:18.571Z,5.35
2023-03-06T00:48:52.959Z,5.18
2023-03-06T00:51:29.844Z,5.21
2023-03-06T00:54:04.068Z,5.20
2023-03-06T00:56:38.579Z,5.12
2023-03-06T00:59:13.034Z,5.30
2023-03-06T01:01:47.936Z,5.27
2023-03-06T01:04:22.655Z,5.13
2023-03-06T01:06:58.542Z,5.13
2023-03-06T01:09:32.896Z,4.97
2023-03-06T01:12:08.666Z,4.67
2023-03-06T01:14:42.888Z,4.86
2023-03-06T01:17:17.476Z,4.62
2023-03-06T01:19:51.787Z,4.56
2023-03-06T01:22:27.800Z,4.54
2023-03-06T01:25:02.024Z,4.51
2023-03-06T01:27:37.048Z,4.53
2023-03-06T01:41:15.716Z,5.25
2023-03-06T01:43:50.854Z,5.25
2023-03-06T01:46:30.221Z,4.75
2023-03-06T01:49:09.600Z,5.07
2023-03-06T01:51:48.921Z,4.88
2023-03-06T01:54:26.378Z,4.86
2023-03-06T01:57:06.267Z,5.02
2023-03-06T01:59:44.293Z,4.91
2023-03-06T02:02:19.080Z,4.65
2023-03-06T02:04:53.687Z,4.57
2023-03-06T02:07:28.098Z,4.69
2023-03-06T02:10:02.737Z,4.76
2023-03-06T02:12:40.607Z,4.83
2023-03-06T02:15:18.184Z,4.80
2023-03-06T02:17:53.893Z,4.90
2023-03-06T02:20:32.869Z,5.02
2023-03-06T02:23:11.768Z,4.94
2023-03-06T02:25:50.932Z,4.75
2023-03-06T02:28:26.418Z,4.86
2023-03-06T02:31:00.812Z,4.95
2023-03-06T02:33:35.415Z,5.07
2023-03-06T02:36:17.312Z,5.17
2023-03-06T02:38:53.676Z,4.74
2023-03-06T02:41:29.675Z,4.54
2023-03-06T02:44:04.295Z,4.46
2023-03-06T02:46:38.578Z,4.58
2023-03-06T02:49:13.439Z,4.70
2023-03-06T02:51:47.674Z,4.73
2023-03-06T02:54:22.293Z,4.81
2023-03-06T02:56:58.112Z,4.78
2023-03-06T02:59:33.233Z,4.85
2023-03-06T03:02:08.674Z,4.93
2023-03-06T03:04:43.263Z,5.04
2023-03-06T03:07:17.882Z,5.02
2023-03-06T03:09:54.667Z,5.08
2023-03-06T03:12:30.327Z,5.04
2023-03-06T03:15:05.544Z,5.08
2023-03-06T03:17:41.322Z,5.07
2023-03-06T03:20:18.565Z,5.12
2023-03-06T03:22:54.325Z,5.15
2023-03-06T03:25:28.867Z,5.18
2023-03-06T03:28:05.002Z,5.20
2023-03-06T03:30:40.364Z,5.08
2023-03-06T03:33:15.743Z,5.06
2023-03-06T03:35:58.016Z,5.19
2023-03-06T03:38:32.930Z,5.13
2023-03-06T03:41:07.524Z,4.94
2023-03-06T03:43:44.236Z,4.81
2023-03-06T03:46:19.094Z,4.53
2023-03-06T03:48:53.462Z,4.58
2023-03-06T03:51:28.760Z,4.66
2023-03-06T03:54:03.231Z,4.62
2023-03-06T03:56:40.380Z,4.68
2023-03-06T03:59:16.711Z,4.81
2023-03-06T04:01:52.668Z,4.82
2023-03-06T04:04:27.315Z,4.86
2023-03-06T04:07:01.754Z,4.79
2023-03-06T04:09:36.377Z,4.89
2023-03-06T04:12:10.964Z,4.86
2023-03-06T04:14:47.011Z,4.82
2023-03-06T04:17:21.519Z,4.83
2023-03-06T04:19:56.291Z,4.96
2023-03-06T04:22:30.929Z,4.82
2023-03-06T04:25:06.549Z,4.96
2023-03-06T04:27:40.927Z,4.95
2023-03-06T04:30:17.288Z,4.97
2023-03-06T04:32:51.681Z,5.07
2023-03-06T04:35:26.884Z,5.06
2023-03-06T04:38:01.824Z,5.04
2023-03-06T04:40:37.799Z,4.85
2023-03-06T04:43:12.078Z,4.85
2023-03-06T04:45:48.074Z,4.85
2023-03-06T04:48:22.550Z,4.80
2023-03-06T04:50:57.143Z,4.91
2023-03-06T04:53:32.906Z,4.80
2023-03-06T04:56:08.287Z,4.76
2023-03-06T04:58:45.063Z,4.89
2023-03-06T05:01:21.078Z,4.87
2023-03-06T05:03:55.352Z,4.93
2023-03-06T05:06:29.791Z,4.74
2023-03-06T05:09:04.393Z,4.66
2023-03-06T05:11:39.321Z,8.77
2023-03-06T05:14:15.495Z,7.97
2023-03-06T05:16:51.448Z,6.63
2023-03-06T05:19:25.943Z,5.71
2023-03-06T05:22:00.441Z,5.36
2023-03-06T05:24:34.795Z,5.04
2023-03-06T05:27:09.309Z,4.67
2023-03-06T05:29:43.912Z,4.74
2023-03-06T05:32:20.280Z,4.55
2023-03-06T05:34:54.602Z,4.43
2023-03-06T05:37:29.144Z,4.52
2023-03-06T05:40:09.603Z,4.66
2023-03-06T05:42:44.337Z,4.62
2023-03-06T05:45:18.911Z,4.75
2023-03-06T05:47:54.839Z,4.86
2023-03-06T05:50:29.403Z,4.87
2023-03-06T05:53:04.582Z,4.98
2023-03-06T05:55:38.776Z,4.96
2023-03-06T05:58:13.335Z,5.01
2023-03-06T06:00:47.572Z,4.96
2023-03-06T06:03:25.309Z,5.07
2023-03-06T06:06:00.342Z,6.61
2023-03-06T06:08:35.271Z,8.61
2023-03-06T06:11:11.028Z,7.11
2023-03-06T06:13:45.670Z,6.39
2023-03-06T06:16:20.121Z,6.31
2023-03-06T06:18:56.335Z,6.03
2023-03-06T06:21:30.725Z,5.98
2023-03-06T06:24:05.575Z,5.72
2023-03-06T06:26:39.869Z,5.72
2023-03-06T06:29:14.904Z,5.78
2023-03-06T06:31:49.300Z,5.78
2023-03-06T06:34:25.698Z,5.74
2023-03-06T06:36:59.898Z,5.75
2023-03-06T06:39:34.432Z,5.73
2023-03-06T06:42:29.435Z,5.72
2023-03-06T06:45:05.292Z,5.69
2023-03-06T06:47:41.588Z,5.69
2023-03-06T06:50:17.892Z,5.59
2023-03-06T06:52:52.363Z,5.55
2023-03-06T06:55:27.477Z,5.62
2023-03-06T06:58:01.732Z,5.42
2023-03-06T07:00:39.409Z,5.30
2023-03-06T07:03:39.807Z,5.99
2023-03-06T07:06:14.868Z,5.99
2023-03-06T07:08:49.258Z,5.42
2023-03-06T07:11:24.307Z,5.43
2023-03-06T07:13:58.791Z,5.46
2023-03-06T07:16:33.427Z,5.49
2023-03-06T07:19:09.515Z,5.57
2023-03-06T07:21:44.196Z,5.53
2023-03-06T07:24:18.592Z,5.65
2023-03-06T07:26:53.214Z,5.68
2023-03-06T07:29:27.479Z,5.75
2023-03-06T07:32:03.218Z,5.68
2023-03-06T07:34:39.028Z,5.81
2023-03-06T07:37:13.884Z,8.96
2023-03-06T07:39:48.212Z,7.89
2023-03-06T07:42:22.810Z,9.48
2023-03-06T07:45:00.711Z,8.96
2023-03-06T07:47:35.326Z,7.83
2023-03-06T07:50:12.430Z,7.57
2023-03-06T07:52:47.310Z,7.23
2023-03-06T07:55:22.149Z,6.81
2023-03-06T07:57:56.727Z,6.82
2023-03-06T08:00:31.047Z,6.60
2023-03-06T08:03:05.720Z,6.58
2023-03-06T08:05:41.370Z,6.64
2023-03-06T08:08:15.891Z,6.49
2023-03-06T08:10:50.463Z,9.22
2023-03-06T08:13:25.441Z,10.79
2023-03-06T08:16:00.122Z,10.84
2023-03-06T08:18:35.535Z,9.51
2023-03-06T08:21:13.577Z,8.15
2023-03-06T08:23:49.212Z,7.74
2023-03-06T08:26:25.072Z,7.60
2023-03-06T08:29:01.713Z,7.18
2023-03-06T08:31:38.071Z,7.30
2023-03-06T08:34:14.760Z,7.44
2023-03-06T08:36:50.419Z,7.32
2023-03-06T08:39:25.024Z,7.34
2023-03-06T08:41:59.263Z,6.93
2023-03-06T08:44:34.450Z,6.95
2023-03-06T08:47:08.846Z,6.96
2023-03-06T08:49:43.466Z,6.82
2023-03-06T08:52:19.969Z,6.91
2023-03-06T08:54:54.503Z,6.85
2023-03-06T08:57:28.722Z,9.39
2023-03-06T09:00:06.060Z,8.09
2023-03-06T09:02:40.671Z,7.53
2023-03-06T09:05:15.249Z,9.79
2023-03-06T09:07:51.106Z,8.37
2023-03-06T09:10:26.954Z,8.19
2023-03-06T09:13:01.273Z,7.71
2023-03-06T09:15:35.882Z,7.53
2023-03-06T09:18:10.145Z,7.41
2023-03-06T09:20:44.734Z,7.29
2023-03-06T09:23:20.339Z,7.31
2023-03-06T09:25:55.351Z,7.17
2023-03-06T09:28:30.341Z,7.12
2023-03-06T09:31:09.049Z,7.26
2023-03-06T09:33:43.460Z,7.07
2023-03-06T09:36:21.036Z,7.15
2023-03-06T09:38:56.653Z,7.18
2023-03-06T09:41:34.244Z,7.16
2023-03-06T09:44:14.734Z,7.08
2023-03-06T09:47:08.653Z,7.19
2023-03-06T09:49:59.534Z,7.19
2023-03-06T09:52:43.587Z,7.01
2023-03-06T09:55:20.837Z,6.95
2023-03-06T09:58:01.306Z,7.05
2023-03-06T10:00:39.995Z,7.21
2023-03-06T10:03:22.911Z,7.29
2023-03-06T10:06:02.780Z,7.24
2023-03-06T10:08:50.159Z,7.18
2023-03-06T10:11:34.374Z,7.29
2023-03-06T10:14:22.854Z,7.20
2023-03-06T10:16:58.563Z,7.18
2023-03-06T10:19:35.732Z,7.24
2023-03-06T10:22:20.917Z,7.33
2023-03-06T10:25:01.182Z,7.29
2023-03-06T10:27:46.200Z,7.23
2023-03-06T10:30:33.870Z,7.31
2023-03-06T10:33:18.722Z,7.36
2023-03-06T10:35:56.327Z,7.57
2023-03-06T10:38:37.841Z,7.68
2023-03-06T10:41:23.897Z,7.72
2023-03-06T10:44:25.385Z,7.67
2023-03-06T10:47:00.003Z,7.66
2023-03-06T10:49:37.050Z,7.60
2023-03-06T10:52:23.641Z,7.68
2023-03-06T10:55:23.805Z,7.66
2023-03-06T10:57:58.622Z,7.94
2023-03-06T11:00:37.121Z,8.25
2023-03-06T11:03:21.323Z,7.93
2023-03-06T11:05:59.507Z,8.13
2023-03-06T11:08:35.518Z,8.28
2023-03-06T11:11:13.672Z,8.43
2023-03-06T11:13:58.810Z,8.62
2023-03-06T11:16:34.646Z,8.44
2023-03-06T11:19:20.919Z,8.64
2023-03-06T11:22:04.016Z,9.18
2023-03-06T11:24:44.811Z,9.16
2023-03-06T11:27:26.744Z,9.22
2023-03-06T11:30:04.051Z,9.62
2023-03-06T11:32:47.344Z,9.47
2023-03-06T11:35:25.177Z,9.43
2023-03-06T11:38:05.052Z,9.37
2023-03-06T11:40:44.690Z,9.43
2023-03-06T11:43:24.554Z,9.27
2023-03-06T11:46:03.329Z,9.35
2023-03-06T11:48:47.238Z,9.67
2023-03-06T11:51:25.909Z,10.00
2023-03-06T11:54:01.698Z,9.96
2023-03-06T11:56:45.002Z,9.83
2023-03-06T11:59:35.768Z,9.50
2023-03-06T12:02:26.643Z,9.50
2023-03-06T12:05:22.755Z,9.62
2023-03-06T12:08:06.556Z,9.89
2023-03-06T12:10:51.608Z,9.75
2023-03-06T12:13:46.516Z,9.65
2023-03-06T12:16:54.270Z,10.09
2023-03-06T12:19:47.714Z,9.92
2023-03-06T12:22:43.169Z,10.07
2023-03-06T12:25:35.386Z,10.15
2023-03-06T12:28:32.656Z,10.36
2023-03-06T12:31:41.195Z,10.30
2023-03-06T12:34:27.332Z,10.52
2023-03-06T12:37:12.963Z,10.55
2023-03-06T12:40:13.681Z,10.19
2023-03-06T12:43:21.861Z,10.42
2023-03-06T12:46:01.999Z,10.36
2023-03-06T12:48:38.670Z,10.56
2023-03-06T12:51:18.692Z,10.74
2023-03-06T12:53:53.865Z,10.40
2023-03-06T12:56:32.445Z,10.08
2023-03-06T12:59:06.742Z,9.99
2023-03-06T13:02:07.755Z,10.02
2023-03-06T13:04:57.179Z,10.32
2023-03-06T13:07:47.610Z,10.57
2023-03-06T13:10:26.798Z,10.36
2023-03-06T13:13:05.172Z,10.13
2023-03-06T13:15:42.444Z,9.74
2023-03-06T13:18:51.665Z,9.24
2023-03-06T13:21:46.657Z,9.26
2023-03-06T13:24:22.746Z,9.15
2023-03-06T13:26:59.822Z,9.05
2023-03-06T13:29:53.179Z,8.99
2023-03-06T13:32:32.652Z,9.09
2023-03-06T13:35:53.382Z,9.16
2023-03-06T13:38:33.297Z,8.95
2023-03-06T13:41:43.192Z,8.88
2023-03-06T13:44:51.026Z,8.96
2023-03-06T13:48:06.480Z,8.81
2023-03-06T13:50:41.184Z,8.86
2023-03-06T13:53:49.885Z,8.87
2023-03-06T13:56:59.540Z,8.64
2023-03-06T14:00:09.467Z,8.56
2023-03-06T14:03:29.046Z,8.56
2023-03-06T14:06:23.568Z,8.53
2023-03-06T14:08:58.316Z,8.48
2023-03-06T14:11:33.672Z,8.52
2023-03-06T14:14:12.804Z,8.39
2023-03-06T14:16:53.689Z,8.52
2023-03-06T14:19:37.687Z,8.49
2023-03-06T14:22:18.971Z,8.80
2023-03-06T14:24:57.799Z,8.60
2023-03-06T14:27:45.263Z,8.63
2023-03-06T14:30:25.192Z,8.66
2023-03-06T14:33:00.646Z,8.54
2023-03-06T14:35:36.577Z,8.59
2023-03-06T14:38:16.364Z,8.61
2023-03-06T14:40:52.553Z,8.76
2023-03-06T14:43:28.401Z,8.73
2023-03-06T14:46:05.212Z,8.81
2023-03-06T14:48:42.915Z,8.70
2023-03-06T14:51:22.235Z,8.63
2023-03-06T14:54:03.301Z,8.74
2023-03-06T14:56:43.089Z,8.65
2023-03-06T14:59:22.182Z,8.68
2023-03-06T15:03:08.382Z,9.08
2023-03-06T15:05:45.920Z,9.08
2023-03-06T15:08:24.940Z,8.50
2023-03-06T15:11:01.592Z,8.52
2023-03-06T15:13:36.835Z,8.35
2023-03-06T15:16:29.999Z,8.36
2023-03-06T15:19:06.340Z,8.33
2023-03-06T15:21:41.125Z,8.46
2023-03-06T15:24:37.643Z,8.68
2023-03-06T15:27:21.623Z,8.47
2023-03-06T15:30:12.220Z,8.54
2023-03-06T15:32:47.132Z,8.60
2023-03-06T15:35:32.868Z,8.50
2023-03-06T15:38:25.818Z,8.36
2023-03-06T15:41:02.166Z,8.37
2023-03-06T15:43:40.581Z,8.35
2023-03-06T15:46:15.030Z,8.14
2023-03-06T15:48:53.779Z,8.35
2023-03-06T15:51:30.032Z,8.20
2023-03-06T15:54:11.899Z,8.14
2023-03-06T15:56:48.537Z,8.12
2023-03-06T15:59:25.854Z,8.24
2023-03-06T16:02:03.596Z,8.25
2023-03-06T16:04:38.256Z,8.30
2023-03-06T16:07:14.178Z,8.30
2023-03-06T16:09:48.767Z,8.35
2023-03-06T16:12:23.849Z,8.33
2023-03-06T16:14:59.992Z,8.10
2023-03-06T16:17:34.330Z,10.57
2023-03-06T16:20:14.757Z,11.84
2023-03-06T16:22:51.175Z,11.28
2023-03-06T16:25:28.792Z,10.75
2023-03-06T16:28:03.766Z,10.27
2023-03-06T16:30:38.566Z,9.56
2023-03-06T16:33:13.744Z,9.33
2023-03-06T16:35:50.065Z,9.08
2023-03-06T16:38:25.854Z,9.08
2023-03-06T16:41:00.763Z,8.94
2023-03-06T16:43:35.636Z,8.84
2023-03-06T16:46:16.426Z,8.74
2023-03-06T16:48:51.067Z,8.60
2023-03-06T16:51:25.606Z,8.59
2023-03-06T16:54:01.425Z,8.31
2023-03-06T16:56:36.213Z,8.21
2023-03-06T16:59:11.403Z,8.27
2023-03-06T17:01:46.013Z,8.23
2023-03-06T17:04:20.567Z,8.23
2023-03-06T17:06:55.134Z,8.14
2023-03-06T17:09:30.856Z,7.96
2023-03-06T17:12:05.947Z,7.88
2023-03-06T17:14:40.153Z,7.95
2023-03-06T17:17:15.898Z,7.97
2023-03-06T17:19:52.753Z,8.05
2023-03-06T17:22:27.928Z,8.04
2023-03-06T17:25:05.180Z,8.01
2023-03-06T17:27:40.048Z,8.02
2023-03-06T17:30:14.855Z,8.07
2023-03-06T17:32:49.659Z,8.08
2023-03-06T17:35:58.886Z,8.04
2023-03-06T21:28:21.290Z,7.72
2023-03-06T21:30:56.258Z,7.72
2023-03-06T21:33:32.298Z,6.82
2023-03-06T21:36:08.467Z,6.75
2023-03-06T21:38:43.188Z,6.64
2023-03-06T21:41:19.662Z,6.40
2023-03-06T21:44:00.135Z,6.49
2023-03-06T21:46:35.835Z,6.18
2023-03-06T21:49:10.048Z,6.21
2023-03-06T21:51:44.728Z,6.42
2023-03-06T21:54:19.024Z,6.39
2023-03-06T21:56:53.788Z,6.64
2023-03-06T21:59:29.392Z,6.64
2023-03-06T22:02:03.969Z,6.39
2023-03-06T22:04:38.472Z,6.54
2023-03-06T22:07:12.695Z,6.66
2023-03-06T22:09:47.611Z,6.42
2023-03-06T22:12:22.286Z,6.45
2023-03-06T22:15:01.314Z,6.39
2023-03-06T22:17:35.625Z,6.47
2023-03-06T22:20:12.147Z,6.40
2023-03-06T22:22:46.356Z,6.42
2023-03-06T22:25:20.840Z,6.56
2023-03-06T22:27:55.537Z,6.50
2023-03-06T22:30:31.551Z,6.57
2023-03-06T22:33:05.840Z,6.66
2023-03-06T22:35:40.420Z,6.77
2023-03-06T22:38:16.078Z,6.40
2023-03-06T22:40:50.626Z,6.10
2023-03-06T22:43:25.345Z,5.91
2023-03-06T22:46:03.756Z,5.96
2023-03-06T22:48:38.396Z,6.05
2023-03-06T22:51:15.466Z,6.20
2023-03-06T22:53:50.912Z,6.19
2023-03-06T22:56:25.876Z,6.14
2023-03-06T22:59:00.832Z,6.37
2023-03-06T23:03:00.102Z,7.02
2023-03-06T23:05:35.020Z,7.02
2023-03-06T23:08:09.240Z,6.61
2023-03-06T23:10:43.356Z,6.62
2023-03-06T23:13:36.916Z,6.61
2023-03-06T23:16:30.079Z,6.70
2023-03-06T23:19:24.138Z,6.58
2023-03-06T23:22:16.811Z,6.52
2023-03-06T23:25:10.660Z,6.66
2023-03-06T23:27:45.340Z,6.56
2023-03-06T23:30:19.844Z,6.68
2023-03-06T23:32:54.556Z,6.63
2023-03-06T23:35:30.191Z,6.57
2023-03-06T23:38:05.170Z,6.50
2023-03-06T23:40:40.278Z,6.67
2023-03-06T23:43:15.216Z,6.47
2023-03-06T23:45:56.065Z,6.52
2023-03-06T23:48:31.179Z,6.51
2023-03-06T23:51:08.653Z,6.52
2023-03-06T23:53:43.617Z,6.61
2023-03-06T23:56:17.877Z,6.66
2023-03-06T23:58:52.710Z,6.62
